sensor_id;sensor_type;location;lat;lon;timestamp;P1;durP1;ratioP1;P2;durP2;ratioP2
2720;SDS011;1368;49.484;11.112;2023-07-29T00:00:47;5.70;;;4.70;;
2720;SDS011;1368;49.484;11.112;2023-07-29T00:03:13;9.40;;;5.40;;
2720;SDS011;1368;49.484;11.112;2023-07-29T00:05:39;6.40;;;5.57;;
2720;SDS011;1368;49.484;11.112;2023-07-29T00:08:05;6.03;;;5.43;;
2720;SDS011;1368;49.484;11.112;2023-07-29T00:10:31;8.63;;;6.20;;
2720;SDS011;1368;49.484;11.112;2023-07-29T00:12:58;7.43;;;5.70;;
2720;SDS011;1368;49.484;11.112;2023-07-29T00:15:24;12.63;;;6.37;;
2720;SDS011;1368;49.484;11.112;2023-07-29T00:17:49;8.47;;;6.57;;
2720;SDS011;1368;49.484;11.112;2023-07-29T00:20:15;8.33;;;7.23;;
2720;SDS011;1368;49.484;11.112;2023-07-29T00:22:40;7.27;;;6.10;;
2720;SDS011;1368;49.484;11.112;2023-07-29T00:25:06;6.90;;;6.10;;
2720;SDS011;1368;49.484;11.112;2023-07-29T00:27:32;8.23;;;7.30;;
2720;SDS011;1368;49.484;11.112;2023-07-29T00:29:58;8.00;;;6.73;;
2720;SDS011;1368;49.484;11.112;2023-07-29T00:32:23;7.60;;;6.10;;
2720;SDS011;1368;49.484;11.112;2023-07-29T00:34:50;10.10;;;7.07;;
2720;SDS011;1368;49.484;11.112;2023-07-29T00:37:15;9.20;;;7.20;;
2720;SDS011;1368;49.484;11.112;2023-07-29T00:39:41;9.87;;;7.00;;
2720;SDS011;1368;49.484;11.112;2023-07-29T00:42:06;8.80;;;7.50;;
2720;SDS011;1368;49.484;11.112;2023-07-29T00:44:33;10.30;;;7.53;;
2720;SDS011;1368;49.484;11.112;2023-07-29T00:46:59;10.80;;;8.30;;
2720;SDS011;1368;49.484;11.112;2023-07-29T00:49:27;11.10;;;8.40;;
2720;SDS011;1368;49.484;11.112;2023-07-29T00:51:53;11.93;;;9.77;;
2720;SDS011;1368;49.484;11.112;2023-07-29T00:54:19;10.53;;;9.27;;
2720;SDS011;1368;49.484;11.112;2023-07-29T00:56:45;10.27;;;8.87;;
2720;SDS011;1368;49.484;11.112;2023-07-29T00:59:10;10.37;;;9.27;;
2720;SDS011;1368;49.484;11.112;2023-07-29T01:01:36;9.20;;;8.20;;
2720;SDS011;1368;49.484;11.112;2023-07-29T01:04:02;10.23;;;9.13;;
2720;SDS011;1368;49.484;11.112;2023-07-29T01:09:34;10.03;;;7.83;;
2720;SDS011;1368;49.484;11.112;2023-07-29T01:12:18;11.00;;;8.00;;
2720;SDS011;1368;49.484;11.112;2023-07-29T01:14:51;10.47;;;8.13;;
2720;SDS011;1368;49.484;11.112;2023-07-29T01:17:29;12.00;;;7.67;;
2720;SDS011;1368;49.484;11.112;2023-07-29T01:20:09;10.63;;;9.27;;
2720;SDS011;1368;49.484;11.112;2023-07-29T01:22:42;11.93;;;9.53;;
2720;SDS011;1368;49.484;11.112;2023-07-29T01:25:08;12.53;;;9.50;;
2720;SDS011;1368;49.484;11.112;2023-07-29T01:27:33;11.90;;;10.50;;
2720;SDS011;1368;49.484;11.112;2023-07-29T01:29:59;13.20;;;10.17;;
2720;SDS011;1368;49.484;11.112;2023-07-29T01:33:09;11.77;;;9.80;;
2720;SDS011;1368;49.484;11.112;2023-07-29T01:35:33;10.50;;;9.40;;
2720;SDS011;1368;49.484;11.112;2023-07-29T01:38:09;11.10;;;9.17;;
2720;SDS011;1368;49.484;11.112;2023-07-29T01:40:44;12.00;;;9.13;;
2720;SDS011;1368;49.484;11.112;2023-07-29T01:43:10;14.30;;;8.73;;
2720;SDS011;1368;49.484;11.112;2023-07-29T01:45:36;13.70;;;11.20;;
2720;SDS011;1368;49.484;11.112;2023-07-29T01:48:06;14.00;;;10.50;;
2720;SDS011;1368;49.484;11.112;2023-07-29T01:50:33;10.97;;;9.50;;
2720;SDS011;1368;49.484;11.112;2023-07-29T01:53:01;10.13;;;9.00;;
2720;SDS011;1368;49.484;11.112;2023-07-29T01:55:27;10.50;;;9.40;;
2720;SDS011;1368;49.484;11.112;2023-07-29T01:57:53;12.63;;;10.30;;
2720;SDS011;1368;49.484;11.112;2023-07-29T02:00:19;10.93;;;8.83;;
2720;SDS011;1368;49.484;11.112;2023-07-29T02:02:45;12.43;;;11.10;;
2720;SDS011;1368;49.484;11.112;2023-07-29T02:05:10;15.80;;;10.57;;
2720;SDS011;1368;49.484;11.112;2023-07-29T02:07:36;11.73;;;9.87;;
2720;SDS011;1368;49.484;11.112;2023-07-29T02:10:02;15.80;;;10.23;;
2720;SDS011;1368;49.484;11.112;2023-07-29T02:12:27;9.80;;;8.63;;
2720;SDS011;1368;49.484;11.112;2023-07-29T02:14:53;13.13;;;10.00;;
2720;SDS011;1368;49.484;11.112;2023-07-29T02:17:19;13.20;;;11.50;;
2720;SDS011;1368;49.484;11.112;2023-07-29T02:19:44;13.13;;;11.43;;
2720;SDS011;1368;49.484;11.112;2023-07-29T02:22:12;14.53;;;10.53;;
2720;SDS011;1368;49.484;11.112;2023-07-29T02:24:39;11.20;;;9.80;;
2720;SDS011;1368;49.484;11.112;2023-07-29T02:27:04;15.03;;;10.80;;
2720;SDS011;1368;49.484;11.112;2023-07-29T02:29:30;12.20;;;10.23;;
2720;SDS011;1368;49.484;11.112;2023-07-29T02:31:57;13.67;;;11.10;;
2720;SDS011;1368;49.484;11.112;2023-07-29T02:34:23;13.77;;;11.00;;
2720;SDS011;1368;49.484;11.112;2023-07-29T02:36:49;10.40;;;9.30;;
2720;SDS011;1368;49.484;11.112;2023-07-29T02:39:14;15.43;;;12.00;;
2720;SDS011;1368;49.484;11.112;2023-07-29T02:41:40;15.90;;;14.20;;
2720;SDS011;1368;49.484;11.112;2023-07-29T02:44:05;18.47;;;13.40;;
2720;SDS011;1368;49.484;11.112;2023-07-29T02:46:31;15.23;;;13.40;;
2720;SDS011;1368;49.484;11.112;2023-07-29T02:48:57;19.13;;;15.40;;
2720;SDS011;1368;49.484;11.112;2023-07-29T02:51:22;14.90;;;12.43;;
2720;SDS011;1368;49.484;11.112;2023-07-29T02:53:48;13.00;;;11.10;;
2720;SDS011;1368;49.484;11.112;2023-07-29T02:56:13;13.03;;;10.97;;
2720;SDS011;1368;49.484;11.112;2023-07-29T02:58:39;13.80;;;11.60;;
2720;SDS011;1368;49.484;11.112;2023-07-29T03:01:05;12.20;;;10.47;;
2720;SDS011;1368;49.484;11.112;2023-07-29T03:03:31;12.73;;;10.80;;
2720;SDS011;1368;49.484;11.112;2023-07-29T03:06:01;16.70;;;12.50;;
2720;SDS011;1368;49.484;11.112;2023-07-29T03:08:28;13.63;;;11.53;;
2720;SDS011;1368;49.484;11.112;2023-07-29T03:10:54;15.40;;;11.57;;
2720;SDS011;1368;49.484;11.112;2023-07-29T03:13:20;13.27;;;10.83;;
2720;SDS011;1368;49.484;11.112;2023-07-29T03:15:46;21.63;;;12.93;;
2720;SDS011;1368;49.484;11.112;2023-07-29T03:18:11;15.83;;;11.10;;
2720;SDS011;1368;49.484;11.112;2023-07-29T03:20:37;17.60;;;12.53;;
2720;SDS011;1368;49.484;11.112;2023-07-29T03:23:02;13.87;;;11.87;;
2720;SDS011;1368;49.484;11.112;2023-07-29T03:25:28;15.80;;;12.37;;
2720;SDS011;1368;49.484;11.112;2023-07-29T03:27:54;22.73;;;17.47;;
2720;SDS011;1368;49.484;11.112;2023-07-29T03:30:20;25.33;;;18.03;;
2720;SDS011;1368;49.484;11.112;2023-07-29T03:32:47;22.73;;;16.70;;
2720;SDS011;1368;49.484;11.112;2023-07-29T03:35:12;17.10;;;14.63;;
2720;SDS011;1368;49.484;11.112;2023-07-29T03:37:38;16.37;;;13.77;;
2720;SDS011;1368;49.484;11.112;2023-07-29T03:40:05;20.70;;;17.83;;
2720;SDS011;1368;49.484;11.112;2023-07-29T03:42:31;14.77;;;13.17;;
2720;SDS011;1368;49.484;11.112;2023-07-29T03:44:57;20.27;;;15.50;;
2720;SDS011;1368;49.484;11.112;2023-07-29T03:47:22;20.10;;;15.87;;
2720;SDS011;1368;49.484;11.112;2023-07-29T03:49:47;19.03;;;15.10;;
2720;SDS011;1368;49.484;11.112;2023-07-29T03:52:13;20.00;;;17.73;;
2720;SDS011;1368;49.484;11.112;2023-07-29T03:54:39;16.70;;;14.43;;
2720;SDS011;1368;49.484;11.112;2023-07-29T03:57:05;23.50;;;18.00;;
2720;SDS011;1368;49.484;11.112;2023-07-29T03:59:30;18.67;;;16.37;;
2720;SDS011;1368;49.484;11.112;2023-07-29T04:01:56;16.43;;;14.73;;
2720;SDS011;1368;49.484;11.112;2023-07-29T04:04:22;24.37;;;18.93;;
2720;SDS011;1368;49.484;11.112;2023-07-29T04:06:47;16.53;;;14.83;;
2720;SDS011;1368;49.484;11.112;2023-07-29T04:09:13;16.53;;;14.77;;
2720;SDS011;1368;49.484;11.112;2023-07-29T04:11:38;16.77;;;13.67;;
2720;SDS011;1368;49.484;11.112;2023-07-29T04:14:04;17.73;;;13.87;;
2720;SDS011;1368;49.484;11.112;2023-07-29T04:16:29;14.37;;;12.40;;
2720;SDS011;1368;49.484;11.112;2023-07-29T04:18:55;12.60;;;11.40;;
2720;SDS011;1368;49.484;11.112;2023-07-29T04:21:21;11.30;;;10.10;;
2720;SDS011;1368;49.484;11.112;2023-07-29T04:23:46;9.53;;;6.80;;
2720;SDS011;1368;49.484;11.112;2023-07-29T04:26:12;10.17;;;6.83;;
2720;SDS011;1368;49.484;11.112;2023-07-29T04:28:38;8.00;;;6.40;;
2720;SDS011;1368;49.484;11.112;2023-07-29T04:31:03;9.83;;;6.30;;
2720;SDS011;1368;49.484;11.112;2023-07-29T04:33:29;9.53;;;5.50;;
2720;SDS011;1368;49.484;11.112;2023-07-29T04:35:55;9.33;;;6.23;;
2720;SDS011;1368;49.484;11.112;2023-07-29T04:38:21;6.70;;;5.63;;
2720;SDS011;1368;49.484;11.112;2023-07-29T04:40:48;5.47;;;4.80;;
2720;SDS011;1368;49.484;11.112;2023-07-29T04:43:14;7.70;;;5.17;;
2720;SDS011;1368;49.484;11.112;2023-07-29T04:45:43;7.00;;;5.40;;
2720;SDS011;1368;49.484;11.112;2023-07-29T04:48:08;6.37;;;5.37;;
2720;SDS011;1368;49.484;11.112;2023-07-29T04:50:34;8.63;;;6.30;;
2720;SDS011;1368;49.484;11.112;2023-07-29T04:53:00;6.53;;;5.67;;
2720;SDS011;1368;49.484;11.112;2023-07-29T04:55:25;5.30;;;4.17;;
2720;SDS011;1368;49.484;11.112;2023-07-29T04:57:51;11.27;;;5.03;;
2720;SDS011;1368;49.484;11.112;2023-07-29T05:00:17;6.20;;;4.07;;
2720;SDS011;1368;49.484;11.112;2023-07-29T05:02:42;6.43;;;3.73;;
2720;SDS011;1368;49.484;11.112;2023-07-29T05:05:08;4.47;;;3.60;;
2720;SDS011;1368;49.484;11.112;2023-07-29T05:07:33;6.93;;;3.87;;
2720;SDS011;1368;49.484;11.112;2023-07-29T05:09:59;6.90;;;3.63;;
2720;SDS011;1368;49.484;11.112;2023-07-29T05:12:24;5.50;;;3.83;;
2720;SDS011;1368;49.484;11.112;2023-07-29T05:14:50;4.50;;;3.67;;
2720;SDS011;1368;49.484;11.112;2023-07-29T05:17:16;5.73;;;3.80;;
2720;SDS011;1368;49.484;11.112;2023-07-29T05:19:41;7.13;;;3.63;;
2720;SDS011;1368;49.484;11.112;2023-07-29T05:22:07;4.83;;;3.57;;
2720;SDS011;1368;49.484;11.112;2023-07-29T05:24:32;4.67;;;3.83;;
2720;SDS011;1368;49.484;11.112;2023-07-29T05:26:58;5.23;;;3.93;;
2720;SDS011;1368;49.484;11.112;2023-07-29T05:29:23;5.10;;;4.00;;
2720;SDS011;1368;49.484;11.112;2023-07-29T05:31:49;7.23;;;3.70;;
2720;SDS011;1368;49.484;11.112;2023-07-29T05:34:14;5.40;;;3.60;;
2720;SDS011;1368;49.484;11.112;2023-07-29T05:36:40;5.63;;;3.57;;
2720;SDS011;1368;49.484;11.112;2023-07-29T05:39:06;4.40;;;3.90;;
2720;SDS011;1368;49.484;11.112;2023-07-29T05:41:32;5.03;;;3.77;;
2720;SDS011;1368;49.484;11.112;2023-07-29T05:43:58;5.57;;;3.93;;
2720;SDS011;1368;49.484;11.112;2023-07-29T05:46:23;4.57;;;3.33;;
2720;SDS011;1368;49.484;11.112;2023-07-29T05:48:49;4.33;;;3.20;;
2720;SDS011;1368;49.484;11.112;2023-07-29T05:51:14;6.03;;;3.97;;
2720;SDS011;1368;49.484;11.112;2023-07-29T05:53:40;6.20;;;3.30;;
2720;SDS011;1368;49.484;11.112;2023-07-29T05:56:05;5.43;;;3.40;;
2720;SDS011;1368;49.484;11.112;2023-07-29T05:58:31;4.00;;;3.07;;
2720;SDS011;1368;49.484;11.112;2023-07-29T06:00:57;3.77;;;3.17;;
2720;SDS011;1368;49.484;11.112;2023-07-29T06:03:23;4.43;;;3.50;;
2720;SDS011;1368;49.484;11.112;2023-07-29T06:05:48;4.93;;;3.90;;
2720;SDS011;1368;49.484;11.112;2023-07-29T06:08:14;5.63;;;3.70;;
2720;SDS011;1368;49.484;11.112;2023-07-29T06:10:40;7.30;;;4.00;;
2720;SDS011;1368;49.484;11.112;2023-07-29T06:13:05;5.20;;;3.43;;
2720;SDS011;1368;49.484;11.112;2023-07-29T06:15:31;5.83;;;3.97;;
2720;SDS011;1368;49.484;11.112;2023-07-29T06:17:57;3.90;;;3.10;;
2720;SDS011;1368;49.484;11.112;2023-07-29T06:20:22;8.23;;;3.80;;
2720;SDS011;1368;49.484;11.112;2023-07-29T06:22:48;5.10;;;3.47;;
2720;SDS011;1368;49.484;11.112;2023-07-29T06:25:14;4.73;;;3.50;;
2720;SDS011;1368;49.484;11.112;2023-07-29T06:27:39;5.17;;;4.10;;
2720;SDS011;1368;49.484;11.112;2023-07-29T06:30:05;5.73;;;3.40;;
2720;SDS011;1368;49.484;11.112;2023-07-29T06:32:31;5.73;;;3.90;;
2720;SDS011;1368;49.484;11.112;2023-07-29T06:34:57;6.33;;;4.30;;
2720;SDS011;1368;49.484;11.112;2023-07-29T06:37:22;7.30;;;4.10;;
2720;SDS011;1368;49.484;11.112;2023-07-29T06:39:48;7.90;;;4.00;;
2720;SDS011;1368;49.484;11.112;2023-07-29T06:42:14;4.80;;;4.07;;
2720;SDS011;1368;49.484;11.112;2023-07-29T06:44:40;5.93;;;4.40;;
2720;SDS011;1368;49.484;11.112;2023-07-29T06:47:05;5.40;;;4.20;;
2720;SDS011;1368;49.484;11.112;2023-07-29T06:49:31;8.67;;;5.17;;
2720;SDS011;1368;49.484;11.112;2023-07-29T06:51:57;18.43;;;6.47;;
2720;SDS011;1368;49.484;11.112;2023-07-29T06:54:25;9.40;;;7.13;;
2720;SDS011;1368;49.484;11.112;2023-07-29T06:56:51;8.90;;;6.50;;
2720;SDS011;1368;49.484;11.112;2023-07-29T06:59:17;9.30;;;6.40;;
2720;SDS011;1368;49.484;11.112;2023-07-29T07:01:43;14.93;;;7.93;;
2720;SDS011;1368;49.484;11.112;2023-07-29T07:04:08;9.17;;;7.03;;
2720;SDS011;1368;49.484;11.112;2023-07-29T07:06:34;16.03;;;9.30;;
2720;SDS011;1368;49.484;11.112;2023-07-29T07:08:59;8.20;;;5.93;;
2720;SDS011;1368;49.484;11.112;2023-07-29T07:11:25;10.33;;;6.93;;
2720;SDS011;1368;49.484;11.112;2023-07-29T07:13:50;18.87;;;8.20;;
2720;SDS011;1368;49.484;11.112;2023-07-29T07:16:16;7.33;;;5.40;;
2720;SDS011;1368;49.484;11.112;2023-07-29T07:18:41;10.43;;;6.40;;
2720;SDS011;1368;49.484;11.112;2023-07-29T07:21:08;9.50;;;5.97;;
2720;SDS011;1368;49.484;11.112;2023-07-29T07:23:34;10.37;;;6.37;;
2720;SDS011;1368;49.484;11.112;2023-07-29T07:25:59;11.33;;;6.23;;
2720;SDS011;1368;49.484;11.112;2023-07-29T07:28:25;10.70;;;5.60;;
2720;SDS011;1368;49.484;11.112;2023-07-29T07:30:51;10.03;;;6.97;;
2720;SDS011;1368;49.484;11.112;2023-07-29T07:33:16;14.87;;;7.00;;
2720;SDS011;1368;49.484;11.112;2023-07-29T07:35:42;8.30;;;6.30;;
2720;SDS011;1368;49.484;11.112;2023-07-29T07:38:08;14.63;;;8.90;;
2720;SDS011;1368;49.484;11.112;2023-07-29T07:40:34;10.83;;;7.73;;
2720;SDS011;1368;49.484;11.112;2023-07-29T07:43:01;11.07;;;8.27;;
2720;SDS011;1368;49.484;11.112;2023-07-29T07:45:28;10.10;;;7.83;;
2720;SDS011;1368;49.484;11.112;2023-07-29T07:47:53;8.80;;;6.10;;
2720;SDS011;1368;49.484;11.112;2023-07-29T07:50:19;11.63;;;8.33;;
2720;SDS011;1368;49.484;11.112;2023-07-29T07:52:45;7.90;;;7.10;;
2720;SDS011;1368;49.484;11.112;2023-07-29T07:55:11;10.83;;;6.90;;
2720;SDS011;1368;49.484;11.112;2023-07-29T07:57:36;10.27;;;8.30;;
2720;SDS011;1368;49.484;11.112;2023-07-29T08:00:02;9.17;;;7.00;;
2720;SDS011;1368;49.484;11.112;2023-07-29T08:02:29;7.37;;;6.53;;
2720;SDS011;1368;49.484;11.112;2023-07-29T08:04:55;11.43;;;6.70;;
2720;SDS011;1368;49.484;11.112;2023-07-29T08:07:20;8.00;;;6.17;;
2720;SDS011;1368;49.484;11.112;2023-07-29T08:09:46;8.30;;;6.93;;
2720;SDS011;1368;49.484;11.112;2023-07-29T08:12:11;11.27;;;9.47;;
2720;SDS011;1368;49.484;11.112;2023-07-29T08:14:37;11.00;;;8.70;;
2720;SDS011;1368;49.484;11.112;2023-07-29T08:17:02;13.57;;;8.73;;
2720;SDS011;1368;49.484;11.112;2023-07-29T08:19:28;12.97;;;9.93;;
2720;SDS011;1368;49.484;11.112;2023-07-29T08:21:54;25.90;;;12.53;;
2720;SDS011;1368;49.484;11.112;2023-07-29T08:24:19;22.13;;;14.60;;
2720;SDS011;1368;49.484;11.112;2023-07-29T08:26:45;16.30;;;12.80;;
2720;SDS011;1368;49.484;11.112;2023-07-29T08:29:11;14.30;;;12.17;;
2720;SDS011;1368;49.484;11.112;2023-07-29T08:31:37;21.80;;;15.50;;
2720;SDS011;1368;49.484;11.112;2023-07-29T08:34:02;15.50;;;11.90;;
2720;SDS011;1368;49.484;11.112;2023-07-29T08:36:28;16.70;;;13.10;;
2720;SDS011;1368;49.484;11.112;2023-07-29T08:38:53;19.93;;;13.17;;
2720;SDS011;1368;49.484;11.112;2023-07-29T08:41:21;14.80;;;13.30;;
2720;SDS011;1368;49.484;11.112;2023-07-29T08:44:02;19.50;;;15.30;;
2720;SDS011;1368;49.484;11.112;2023-07-29T08:46:32;18.87;;;14.83;;
2720;SDS011;1368;49.484;11.112;2023-07-29T08:48:58;18.73;;;13.50;;
2720;SDS011;1368;49.484;11.112;2023-07-29T08:51:26;14.13;;;12.33;;
2720;SDS011;1368;49.484;11.112;2023-07-29T08:53:52;14.67;;;11.13;;
2720;SDS011;1368;49.484;11.112;2023-07-29T08:56:18;12.70;;;11.40;;
2720;SDS011;1368;49.484;11.112;2023-07-29T08:58:44;11.07;;;9.70;;
2720;SDS011;1368;49.484;11.112;2023-07-29T09:01:11;15.23;;;11.57;;
2720;SDS011;1368;49.484;11.112;2023-07-29T09:03:37;9.43;;;7.57;;
2720;SDS011;1368;49.484;11.112;2023-07-29T09:06:03;10.30;;;6.50;;
2720;SDS011;1368;49.484;11.112;2023-07-29T09:08:28;7.07;;;6.13;;
2720;SDS011;1368;49.484;11.112;2023-07-29T09:10:54;8.27;;;5.47;;
2720;SDS011;1368;49.484;11.112;2023-07-29T09:13:20;8.30;;;5.20;;
2720;SDS011;1368;49.484;11.112;2023-07-29T09:15:46;5.67;;;4.67;;
2720;SDS011;1368;49.484;11.112;2023-07-29T09:18:16;6.83;;;5.07;;
2720;SDS011;1368;49.484;11.112;2023-07-29T09:20:44;6.40;;;4.07;;
2720;SDS011;1368;49.484;11.112;2023-07-29T09:23:12;5.97;;;4.83;;
2720;SDS011;1368;49.484;11.112;2023-07-29T09:25:38;14.00;;;6.57;;
2720;SDS011;1368;49.484;11.112;2023-07-29T09:28:08;12.50;;;6.53;;
2720;SDS011;1368;49.484;11.112;2023-07-29T09:30:36;7.73;;;6.10;;
2720;SDS011;1368;49.484;11.112;2023-07-29T09:33:05;15.33;;;9.77;;
2720;SDS011;1368;49.484;11.112;2023-07-29T09:35:33;12.40;;;8.67;;
2720;SDS011;1368;49.484;11.112;2023-07-29T09:37:59;11.47;;;7.07;;
2720;SDS011;1368;49.484;11.112;2023-07-29T09:40:25;13.10;;;9.47;;
2720;SDS011;1368;49.484;11.112;2023-07-29T09:42:52;9.80;;;6.90;;
2720;SDS011;1368;49.484;11.112;2023-07-29T09:45:22;12.00;;;9.00;;
2720;SDS011;1368;49.484;11.112;2023-07-29T09:47:49;13.17;;;9.03;;
2720;SDS011;1368;49.484;11.112;2023-07-29T09:50:15;10.87;;;7.53;;
2720;SDS011;1368;49.484;11.112;2023-07-29T09:52:41;7.27;;;5.30;;
2720;SDS011;1368;49.484;11.112;2023-07-29T09:55:09;9.80;;;8.50;;
2720;SDS011;1368;49.484;11.112;2023-07-29T09:57:36;9.93;;;7.07;;
2720;SDS011;1368;49.484;11.112;2023-07-29T10:00:04;9.17;;;6.00;;
2720;SDS011;1368;49.484;11.112;2023-07-29T10:02:35;6.40;;;4.90;;
2720;SDS011;1368;49.484;11.112;2023-07-29T10:05:02;6.20;;;5.07;;
2720;SDS011;1368;49.484;11.112;2023-07-29T10:07:29;7.47;;;6.00;;
2720;SDS011;1368;49.484;11.112;2023-07-29T10:09:55;11.00;;;7.53;;
2720;SDS011;1368;49.484;11.112;2023-07-29T10:12:22;10.43;;;7.60;;
2720;SDS011;1368;49.484;11.112;2023-07-29T10:14:50;8.97;;;7.43;;
2720;SDS011;1368;49.484;11.112;2023-07-29T10:17:16;8.20;;;7.30;;
2720;SDS011;1368;49.484;11.112;2023-07-29T10:19:44;8.77;;;6.90;;
2720;SDS011;1368;49.484;11.112;2023-07-29T10:22:10;9.03;;;6.50;;
2720;SDS011;1368;49.484;11.112;2023-07-29T10:24:38;10.07;;;6.40;;
2720;SDS011;1368;49.484;11.112;2023-07-29T10:27:07;6.63;;;5.77;;
2720;SDS011;1368;49.484;11.112;2023-07-29T10:29:37;8.87;;;6.10;;
2720;SDS011;1368;49.484;11.112;2023-07-29T10:32:07;8.80;;;5.63;;
2720;SDS011;1368;49.484;11.112;2023-07-29T10:34:35;8.73;;;6.03;;
2720;SDS011;1368;49.484;11.112;2023-07-29T10:37:01;7.67;;;5.50;;
2720;SDS011;1368;49.484;11.112;2023-07-29T10:39:27;8.37;;;6.03;;
2720;SDS011;1368;49.484;11.112;2023-07-29T10:42:05;7.97;;;6.27;;
2720;SDS011;1368;49.484;11.112;2023-07-29T10:47:16;5.97;;;4.70;;
2720;SDS011;1368;49.484;11.112;2023-07-29T10:49:50;9.43;;;5.67;;
2720;SDS011;1368;49.484;11.112;2023-07-29T10:55:00;8.00;;;4.30;;
2720;SDS011;1368;49.484;11.112;2023-07-29T10:57:33;5.77;;;4.33;;
2720;SDS011;1368;49.484;11.112;2023-07-29T11:00:00;7.90;;;4.60;;
2720;SDS011;1368;49.484;11.112;2023-07-29T11:02:29;7.10;;;4.07;;
2720;SDS011;1368;49.484;11.112;2023-07-29T11:04:56;5.80;;;4.10;;
2720;SDS011;1368;49.484;11.112;2023-07-29T11:07:22;6.80;;;3.30;;
2720;SDS011;1368;49.484;11.112;2023-07-29T11:09:52;3.80;;;3.00;;
2720;SDS011;1368;49.484;11.112;2023-07-29T11:15:15;3.60;;;2.60;;
2720;SDS011;1368;49.484;11.112;2023-07-29T11:17:44;5.00;;;2.80;;
2720;SDS011;1368;49.484;11.112;2023-07-29T11:20:21;3.57;;;2.77;;
2720;SDS011;1368;49.484;11.112;2023-07-29T11:22:48;3.80;;;2.27;;
2720;SDS011;1368;49.484;11.112;2023-07-29T11:25:15;3.97;;;2.87;;
2720;SDS011;1368;49.484;11.112;2023-07-29T11:27:41;6.23;;;2.90;;
2720;SDS011;1368;49.484;11.112;2023-07-29T11:30:08;4.80;;;2.57;;
2720;SDS011;1368;49.484;11.112;2023-07-29T11:32:35;5.40;;;3.07;;
2720;SDS011;1368;49.484;11.112;2023-07-29T11:35:02;4.07;;;2.93;;
2720;SDS011;1368;49.484;11.112;2023-07-29T11:37:29;3.30;;;2.43;;
2720;SDS011;1368;49.484;11.112;2023-07-29T11:39:55;3.73;;;2.50;;
2720;SDS011;1368;49.484;11.112;2023-07-29T11:42:21;3.63;;;2.30;;
2720;SDS011;1368;49.484;11.112;2023-07-29T11:44:46;4.60;;;2.53;;
2720;SDS011;1368;49.484;11.112;2023-07-29T11:47:12;2.70;;;1.90;;
2720;SDS011;1368;49.484;11.112;2023-07-29T11:49:38;3.43;;;2.53;;
2720;SDS011;1368;49.484;11.112;2023-07-29T11:52:08;3.70;;;2.40;;
2720;SDS011;1368;49.484;11.112;2023-07-29T11:54:36;3.07;;;2.17;;
2720;SDS011;1368;49.484;11.112;2023-07-29T11:57:09;3.70;;;2.23;;
2720;SDS011;1368;49.484;11.112;2023-07-29T11:59:35;4.10;;;2.10;;
2720;SDS011;1368;49.484;11.112;2023-07-29T12:02:02;3.27;;;2.27;;
2720;SDS011;1368;49.484;11.112;2023-07-29T12:04:31;3.80;;;2.80;;
2720;SDS011;1368;49.484;11.112;2023-07-29T12:06:58;4.33;;;2.80;;
2720;SDS011;1368;49.484;11.112;2023-07-29T12:09:24;3.73;;;2.40;;
2720;SDS011;1368;49.484;11.112;2023-07-29T12:11:51;3.60;;;2.50;;
2720;SDS011;1368;49.484;11.112;2023-07-29T12:14:17;4.17;;;2.50;;
2720;SDS011;1368;49.484;11.112;2023-07-29T12:16:43;5.23;;;2.60;;
2720;SDS011;1368;49.484;11.112;2023-07-29T12:19:11;4.70;;;2.67;;
2720;SDS011;1368;49.484;11.112;2023-07-29T12:21:38;4.57;;;3.27;;
2720;SDS011;1368;49.484;11.112;2023-07-29T12:24:05;3.50;;;2.43;;
2720;SDS011;1368;49.484;11.112;2023-07-29T12:26:30;4.60;;;2.50;;
2720;SDS011;1368;49.484;11.112;2023-07-29T12:28:56;5.33;;;2.40;;
2720;SDS011;1368;49.484;11.112;2023-07-29T12:31:27;3.60;;;2.43;;
2720;SDS011;1368;49.484;11.112;2023-07-29T12:33:56;3.63;;;2.33;;
2720;SDS011;1368;49.484;11.112;2023-07-29T12:36:22;5.50;;;2.37;;
2720;SDS011;1368;49.484;11.112;2023-07-29T12:38:52;4.67;;;2.57;;
2720;SDS011;1368;49.484;11.112;2023-07-29T12:41:17;3.43;;;1.93;;
2720;SDS011;1368;49.484;11.112;2023-07-29T12:43:43;3.40;;;2.27;;
2720;SDS011;1368;49.484;11.112;2023-07-29T12:46:08;4.37;;;2.63;;
2720;SDS011;1368;49.484;11.112;2023-07-29T12:48:34;4.00;;;3.07;;
2720;SDS011;1368;49.484;11.112;2023-07-29T12:50:59;4.50;;;2.87;;
2720;SDS011;1368;49.484;11.112;2023-07-29T12:53:25;4.90;;;2.73;;
2720;SDS011;1368;49.484;11.112;2023-07-29T12:55:50;2.97;;;1.80;;
2720;SDS011;1368;49.484;11.112;2023-07-29T12:58:16;4.87;;;2.70;;
2720;SDS011;1368;49.484;11.112;2023-07-29T13:00:41;4.20;;;2.50;;
2720;SDS011;1368;49.484;11.112;2023-07-29T13:03:07;4.13;;;2.20;;
2720;SDS011;1368;49.484;11.112;2023-07-29T13:05:32;4.40;;;2.40;;
2720;SDS011;1368;49.484;11.112;2023-07-29T13:07:58;6.07;;;3.10;;
2720;SDS011;1368;49.484;11.112;2023-07-29T13:10:24;3.47;;;1.97;;
2720;SDS011;1368;49.484;11.112;2023-07-29T13:12:49;6.27;;;2.47;;
2720;SDS011;1368;49.484;11.112;2023-07-29T13:15:15;4.77;;;2.53;;
2720;SDS011;1368;49.484;11.112;2023-07-29T13:17:40;4.63;;;2.40;;
2720;SDS011;1368;49.484;11.112;2023-07-29T13:20:06;4.33;;;2.57;;
2720;SDS011;1368;49.484;11.112;2023-07-29T13:22:33;4.27;;;2.67;;
2720;SDS011;1368;49.484;11.112;2023-07-29T13:24:58;4.00;;;2.53;;
2720;SDS011;1368;49.484;11.112;2023-07-29T13:27:24;4.80;;;2.50;;
2720;SDS011;1368;49.484;11.112;2023-07-29T13:29:50;3.27;;;2.37;;
2720;SDS011;1368;49.484;11.112;2023-07-29T13:32:15;3.40;;;1.93;;
2720;SDS011;1368;49.484;11.112;2023-07-29T13:34:41;3.90;;;1.70;;
2720;SDS011;1368;49.484;11.112;2023-07-29T13:37:07;3.03;;;1.77;;
2720;SDS011;1368;49.484;11.112;2023-07-29T13:39:33;4.70;;;2.13;;
2720;SDS011;1368;49.484;11.112;2023-07-29T13:41:58;4.43;;;1.93;;
2720;SDS011;1368;49.484;11.112;2023-07-29T13:44:24;4.77;;;2.30;;
2720;SDS011;1368;49.484;11.112;2023-07-29T13:46:49;5.17;;;2.17;;
2720;SDS011;1368;49.484;11.112;2023-07-29T13:49:15;3.83;;;2.30;;
2720;SDS011;1368;49.484;11.112;2023-07-29T13:51:42;4.70;;;3.07;;
2720;SDS011;1368;49.484;11.112;2023-07-29T13:54:07;3.67;;;2.17;;
2720;SDS011;1368;49.484;11.112;2023-07-29T13:56:33;5.90;;;2.40;;
2720;SDS011;1368;49.484;11.112;2023-07-29T13:58:58;2.53;;;1.40;;
2720;SDS011;1368;49.484;11.112;2023-07-29T14:01:24;4.87;;;1.90;;
2720;SDS011;1368;49.484;11.112;2023-07-29T14:03:49;3.60;;;2.03;;
2720;SDS011;1368;49.484;11.112;2023-07-29T14:06:15;4.00;;;2.07;;
2720;SDS011;1368;49.484;11.112;2023-07-29T14:08:40;3.10;;;2.03;;
2720;SDS011;1368;49.484;11.112;2023-07-29T14:11:06;4.73;;;2.20;;
2720;SDS011;1368;49.484;11.112;2023-07-29T14:13:32;8.43;;;2.60;;
2720;SDS011;1368;49.484;11.112;2023-07-29T14:16:00;4.47;;;2.07;;
2720;SDS011;1368;49.484;11.112;2023-07-29T14:18:27;4.60;;;2.63;;
2720;SDS011;1368;49.484;11.112;2023-07-29T14:20:52;3.87;;;2.47;;
2720;SDS011;1368;49.484;11.112;2023-07-29T14:23:18;4.10;;;2.10;;
2720;SDS011;1368;49.484;11.112;2023-07-29T14:25:43;4.40;;;2.53;;
2720;SDS011;1368;49.484;11.112;2023-07-29T14:28:09;3.60;;;1.70;;
2720;SDS011;1368;49.484;11.112;2023-07-29T14:30:34;2.77;;;1.63;;
2720;SDS011;1368;49.484;11.112;2023-07-29T14:33:00;5.70;;;3.40;;
2720;SDS011;1368;49.484;11.112;2023-07-29T14:35:26;5.30;;;1.93;;
2720;SDS011;1368;49.484;11.112;2023-07-29T14:37:51;3.27;;;2.17;;
2720;SDS011;1368;49.484;11.112;2023-07-29T14:40:17;3.73;;;1.73;;
2720;SDS011;1368;49.484;11.112;2023-07-29T14:42:42;3.33;;;1.50;;
2720;SDS011;1368;49.484;11.112;2023-07-29T14:45:08;2.13;;;1.27;;
2720;SDS011;1368;49.484;11.112;2023-07-29T14:47:34;3.73;;;1.90;;
2720;SDS011;1368;49.484;11.112;2023-07-29T14:50:00;4.30;;;2.20;;
2720;SDS011;1368;49.484;11.112;2023-07-29T14:52:26;5.10;;;1.70;;
2720;SDS011;1368;49.484;11.112;2023-07-29T14:54:51;2.70;;;1.40;;
2720;SDS011;1368;49.484;11.112;2023-07-29T14:57:16;4.10;;;2.10;;
2720;SDS011;1368;49.484;11.112;2023-07-29T14:59:42;2.53;;;1.53;;